Auburndale, Florida
Current Conditions -  °F | °C
As of 9:53 PM on Friday 31 Oct 2014 (Local Time) from KGIF Reporting Station
Clear Clear  
Wind Chill: 63°   Ceiling: Unl
Heat Index: 63°   Visibility: 10mi
Dew Point: 50°   Wind: 9mph
Humidity: 63%   Direction: 290°WNW
Pressure: 29.92"   Gusts: NA
Location:  28.06°N, 81.78°W
Report Text: KGIF 010153Z AUTO 29008KT 10SM CLR 17/10 A2992 RMK AO2 SLP129 T01720100
Loading
Personal Weather Stations






























Interactive Weather Map
Tropical Storm Tracking
New forecast layout! Learn more

10-Day Weather Forecast

Advertisements
Track Severe Weather on mobile